createdAt,value
2022-12-22T00:05:33.241Z,1.60
2022-12-22T00:08:20.276Z,1.80
2022-12-22T00:11:06.858Z,2.10
2022-12-22T00:13:53.354Z,2.15
2022-12-22T00:16:38.987Z,2.20
2022-12-22T00:19:32.115Z,1.70
2022-12-22T00:22:20.994Z,1.60
2022-12-22T00:25:08.289Z,1.70
2022-12-22T00:27:54.255Z,1.73
2022-12-22T00:30:40.003Z,1.90
2022-12-22T00:33:25.721Z,1.40
2022-12-22T00:36:11.355Z,1.58
2022-12-22T00:38:57.142Z,2.15
2022-12-22T00:41:44.439Z,1.83
2022-12-22T00:44:30.362Z,1.85
2022-12-22T00:47:15.965Z,1.83
2022-12-22T00:50:06.016Z,1.67
2022-12-22T00:52:52.377Z,2.00
2022-12-22T00:55:43.885Z,1.83
2022-12-22T00:58:35.408Z,1.83
2022-12-22T01:01:21.112Z,1.70
2022-12-22T01:04:06.972Z,2.20
2022-12-22T01:06:54.694Z,1.98
2022-12-22T01:09:41.218Z,1.92
2022-12-22T01:12:33.958Z,2.13
2022-12-22T01:15:20.852Z,1.75
2022-12-22T01:18:06.538Z,1.80
2022-12-22T01:20:52.045Z,1.75
2022-12-22T01:23:37.878Z,2.10
2022-12-22T01:26:28.440Z,1.83
2022-12-22T01:29:14.055Z,1.77
2022-12-22T01:32:00.958Z,2.35
2022-12-22T01:34:46.547Z,1.83
2022-12-22T01:37:32.124Z,1.92
2022-12-22T01:40:17.590Z,2.03
2022-12-22T01:43:03.646Z,2.30
2022-12-22T01:45:52.633Z,1.80
2022-12-22T01:48:45.166Z,1.77
2022-12-22T01:51:33.713Z,2.35
2022-12-22T01:54:20.281Z,1.70
2022-12-22T01:57:07.537Z,1.90
2022-12-22T01:59:53.417Z,2.10
2022-12-22T02:02:41.708Z,2.15
2022-12-22T02:05:33.432Z,2.00
2022-12-22T02:08:34.664Z,1.85
2022-12-22T02:11:35.754Z,1.88
2022-12-22T02:14:37.873Z,1.77
2022-12-22T02:17:30.571Z,1.58
2022-12-22T02:20:46.285Z,1.90
2022-12-22T02:23:45.396Z,1.88
2022-12-22T02:26:45.989Z,1.92
2022-12-22T02:29:34.259Z,1.52
2022-12-22T02:32:20.100Z,1.80
2022-12-22T02:35:06.124Z,1.85
2022-12-22T02:38:01.779Z,2.42
2022-12-22T02:40:54.510Z,2.20
2022-12-22T02:43:57.250Z,1.90
2022-12-22T02:46:49.943Z,2.10
2022-12-22T02:49:41.417Z,2.03
2022-12-22T02:52:37.214Z,2.00
2022-12-22T02:55:25.121Z,2.17
2022-12-22T02:58:11.201Z,2.10
2022-12-22T03:00:58.924Z,1.85
2022-12-22T03:03:45.153Z,2.10
2022-12-22T03:06:30.823Z,2.20
2022-12-22T03:09:16.762Z,2.30
2022-12-22T03:12:02.313Z,2.38
2022-12-22T03:14:48.123Z,1.88
2022-12-22T03:17:35.149Z,1.98
2022-12-22T03:20:20.929Z,2.20
2022-12-22T03:23:06.408Z,1.98
2022-12-22T03:25:53.023Z,2.35
2022-12-22T03:28:22.738Z,2.45
2022-12-22T03:30:59.955Z,2.42
2022-12-22T03:33:30.736Z,2.08
2022-12-22T03:35:59.700Z,2.63
2022-12-22T03:38:28.919Z,2.30
2022-12-22T03:40:57.456Z,1.98
2022-12-22T03:43:43.576Z,2.67
2022-12-22T03:46:30.643Z,2.47
2022-12-22T03:49:13.203Z,2.30
2022-12-22T03:51:47.670Z,2.15
2022-12-22T03:54:17.963Z,2.47
2022-12-22T03:56:46.699Z,1.98
2022-12-22T03:59:16.067Z,2.65
2022-12-22T04:01:47.064Z,2.28
2022-12-22T04:04:20.809Z,2.42
2022-12-22T04:06:49.567Z,2.67
2022-12-22T04:09:17.863Z,3.00
2022-12-22T04:12:03.939Z,2.53
2022-12-22T04:14:34.579Z,2.13
2022-12-22T04:17:03.731Z,2.25
2022-12-22T04:19:34.668Z,2.80
2022-12-22T04:22:03.137Z,2.63
2022-12-22T04:24:31.612Z,2.22
2022-12-22T04:26:59.913Z,2.67
2022-12-22T04:29:28.292Z,2.25
2022-12-22T04:31:56.650Z,2.30
2022-12-22T04:34:24.987Z,2.38
2022-12-22T04:36:54.583Z,2.35
2022-12-22T04:39:22.866Z,2.25
2022-12-22T04:41:51.131Z,2.22
2022-12-22T04:44:19.467Z,2.47
2022-12-22T04:46:47.708Z,2.50
2022-12-22T04:49:16.021Z,2.45
2022-12-22T04:51:44.331Z,2.45
2022-12-22T04:54:14.340Z,2.33
2022-12-22T04:56:42.612Z,2.65
2022-12-22T04:59:11.035Z,2.67
2022-12-22T05:01:39.647Z,2.50
2022-12-22T05:04:08.004Z,2.70
2022-12-22T05:06:36.264Z,3.00
2022-12-22T05:09:04.893Z,2.60
2022-12-22T05:11:34.670Z,2.40
2022-12-22T05:14:07.206Z,2.40
2022-12-22T05:16:36.037Z,2.17
2022-12-22T05:19:04.505Z,2.60
2022-12-22T05:21:32.821Z,2.50
2022-12-22T05:24:01.146Z,2.33
2022-12-22T05:26:29.508Z,2.35
2022-12-22T05:28:59.182Z,2.30
2022-12-22T05:31:28.050Z,2.88
2022-12-22T05:33:56.951Z,2.50
2022-12-22T05:36:25.262Z,2.55
2022-12-22T05:38:53.671Z,5.57
2022-12-22T05:41:21.964Z,1.50
2022-12-22T05:43:50.224Z,1.60
2022-12-22T05:46:20.214Z,1.67
2022-12-22T05:48:48.763Z,2.05
2022-12-22T05:51:17.138Z,1.63
2022-12-22T05:53:45.503Z,1.48
2022-12-22T05:56:13.799Z,1.80
2022-12-22T05:58:42.130Z,1.85
2022-12-22T06:01:10.516Z,1.90
2022-12-22T06:03:40.278Z,1.65
2022-12-22T06:06:08.954Z,1.60
2022-12-22T06:08:37.257Z,1.55
2022-12-22T06:11:05.860Z,1.63
2022-12-22T06:13:34.310Z,1.60
2022-12-22T06:16:02.923Z,1.60
2022-12-22T06:18:31.281Z,1.42
2022-12-22T06:21:00.988Z,1.48
2022-12-22T06:23:29.340Z,1.80
2022-12-22T06:25:58.193Z,1.50
2022-12-22T06:28:27.179Z,1.45
2022-12-22T06:30:56.189Z,1.60
2022-12-22T06:33:24.767Z,1.70
2022-12-22T06:35:58.731Z,1.67
2022-12-22T06:38:29.643Z,1.50
2022-12-22T06:40:58.241Z,1.80
2022-12-22T06:43:25.905Z,1.60
2022-12-22T06:45:54.678Z,1.45
2022-12-22T06:48:23.145Z,1.40
2022-12-22T06:50:51.881Z,1.80
2022-12-22T06:53:20.159Z,1.67
2022-12-22T06:55:49.778Z,1.80
2022-12-22T06:58:18.076Z,1.50
2022-12-22T07:00:48.675Z,1.98
2022-12-22T07:03:17.605Z,1.80
2022-12-22T07:05:46.079Z,1.70
2022-12-22T07:08:14.411Z,1.63
2022-12-22T07:11:00.988Z,1.50
2022-12-22T07:13:34.077Z,1.80
2022-12-22T07:16:03.107Z,1.50
2022-12-22T07:18:33.446Z,1.50
2022-12-22T07:21:03.734Z,2.17
2022-12-22T07:23:32.764Z,1.40
2022-12-22T07:26:01.585Z,1.92
2022-12-22T07:28:33.618Z,1.77
2022-12-22T07:31:02.365Z,1.35
2022-12-22T07:33:31.221Z,1.73
2022-12-22T07:36:09.957Z,1.67
2022-12-22T07:38:40.139Z,1.60
2022-12-22T07:41:32.196Z,2.20
2022-12-22T07:44:01.838Z,1.67
2022-12-22T07:46:32.690Z,1.50
2022-12-22T07:49:18.746Z,1.70
2022-12-22T07:51:47.275Z,2.00
2022-12-22T07:54:17.427Z,2.28
2022-12-22T07:56:47.888Z,2.23
2022-12-22T07:59:18.226Z,2.13
2022-12-22T08:01:47.142Z,2.20
2022-12-22T08:04:16.450Z,2.53
2022-12-22T08:06:44.964Z,2.40
2022-12-22T08:09:21.512Z,1.80
2022-12-22T08:11:51.272Z,1.98
2022-12-22T08:14:20.966Z,2.15
2022-12-22T08:16:49.384Z,2.08
2022-12-22T08:19:17.844Z,2.80
2022-12-22T08:21:52.536Z,2.30
2022-12-22T08:24:22.760Z,1.77
2022-12-22T08:26:54.536Z,1.85
2022-12-22T08:29:29.198Z,2.15
2022-12-22T08:31:57.808Z,1.98
2022-12-22T08:34:26.243Z,2.58
2022-12-22T08:36:58.050Z,1.83
2022-12-22T08:39:43.636Z,2.47
2022-12-22T08:42:15.493Z,2.55
2022-12-22T08:44:46.017Z,2.67
2022-12-22T08:47:17.066Z,2.78
2022-12-22T08:49:45.818Z,2.40
2022-12-22T08:52:18.913Z,1.83
2022-12-22T08:54:47.625Z,2.28
2022-12-22T08:57:16.035Z,2.90
2022-12-22T08:59:48.206Z,2.33
2022-12-22T09:02:16.684Z,1.90
2022-12-22T09:04:45.073Z,1.50
2022-12-22T09:07:13.375Z,1.80
2022-12-22T09:09:41.947Z,1.58
2022-12-22T09:12:10.260Z,2.67
2022-12-22T09:14:38.707Z,1.88
2022-12-22T09:17:08.560Z,2.17
2022-12-22T09:19:37.418Z,2.47
2022-12-22T09:22:05.767Z,2.55
2022-12-22T09:24:34.127Z,2.00
2022-12-22T09:27:03.515Z,2.40
2022-12-22T09:29:32.070Z,2.22
2022-12-22T09:32:00.386Z,2.65
2022-12-22T09:34:30.282Z,2.55
2022-12-22T09:36:58.673Z,2.10
2022-12-22T09:39:29.304Z,2.65
2022-12-22T09:42:00.079Z,2.28
2022-12-22T09:44:33.159Z,2.05
2022-12-22T09:47:03.651Z,2.53
2022-12-22T09:49:33.373Z,2.15
2022-12-22T09:52:05.299Z,2.15
2022-12-22T09:54:33.651Z,2.33
2022-12-22T09:57:03.203Z,2.30
2022-12-22T09:59:31.739Z,1.98
2022-12-22T10:02:15.611Z,2.45
2022-12-22T10:05:00.732Z,2.28
2022-12-22T10:07:34.864Z,2.83
2022-12-22T10:10:09.191Z,2.38
2022-12-22T10:12:37.553Z,1.98
2022-12-22T10:15:07.555Z,2.25
2022-12-22T10:17:38.686Z,2.60
2022-12-22T10:28:26.891Z,2.70
2022-12-22T10:31:20.733Z,3.28
2022-12-22T10:33:51.371Z,2.58
2022-12-22T10:36:26.070Z,2.67
2022-12-22T10:39:02.873Z,2.30
2022-12-22T10:41:36.472Z,2.08
2022-12-22T10:44:10.595Z,2.95
2022-12-22T10:46:43.489Z,2.67
2022-12-22T10:49:17.919Z,2.90
2022-12-22T10:51:50.719Z,3.20
2022-12-22T10:54:31.993Z,3.38
2022-12-22T10:57:07.580Z,2.90
2022-12-22T10:59:49.190Z,3.35
2022-12-22T11:02:35.043Z,3.05
2022-12-22T11:05:08.065Z,3.20
2022-12-22T11:07:40.977Z,2.55
2022-12-22T11:10:29.995Z,3.20
2022-12-22T11:13:26.476Z,3.85
2022-12-22T11:16:02.818Z,2.35
2022-12-22T11:18:53.365Z,3.42
2022-12-22T11:21:29.883Z,2.47
2022-12-22T11:24:13.410Z,2.95
2022-12-22T11:26:52.454Z,4.63
2022-12-22T11:29:44.135Z,2.85
2022-12-22T11:32:37.253Z,2.80
2022-12-22T11:35:15.432Z,3.28
2022-12-22T11:37:50.430Z,2.42
2022-12-22T11:40:33.330Z,3.50
2022-12-22T11:43:37.483Z,2.65
2022-12-22T11:46:21.287Z,2.22
2022-12-22T11:49:33.389Z,2.25
2022-12-22T11:52:28.146Z,2.65
2022-12-22T11:55:20.746Z,2.67
2022-12-22T11:58:03.150Z,2.88
2022-12-22T12:01:12.582Z,2.65
2022-12-22T12:04:22.156Z,1.95
2022-12-22T12:07:23.577Z,2.10
2022-12-22T12:10:05.729Z,2.70
2022-12-22T12:12:49.723Z,1.67
2022-12-22T12:15:29.360Z,2.13
2022-12-22T12:18:30.200Z,2.65
2022-12-22T12:21:13.994Z,1.85
2022-12-22T12:24:06.795Z,2.92
2022-12-22T12:26:45.657Z,2.58
2022-12-22T12:29:20.442Z,2.30
2022-12-22T12:31:56.317Z,2.20
2022-12-22T12:34:25.723Z,2.15
2022-12-22T12:36:59.773Z,2.63
2022-12-22T12:39:36.785Z,2.17
2022-12-22T12:42:27.352Z,2.28
2022-12-22T12:44:56.451Z,2.50
2022-12-22T12:47:29.136Z,2.60
2022-12-22T12:50:32.878Z,1.95
2022-12-22T12:53:11.061Z,1.90
2022-12-22T12:56:04.242Z,1.85
2022-12-22T12:59:02.909Z,1.88
2022-12-22T13:02:00.529Z,1.67
2022-12-22T13:05:26.477Z,1.83
2022-12-22T13:08:20.180Z,2.10
2022-12-22T13:11:44.674Z,1.88
2022-12-22T13:14:09.297Z,2.03
2022-12-22T13:16:40.576Z,1.58
2022-12-22T13:19:27.654Z,1.77
2022-12-22T13:21:58.058Z,1.73
2022-12-22T13:24:31.577Z,2.35
2022-12-22T13:27:06.869Z,1.67
2022-12-22T13:29:44.735Z,1.45
2022-12-22T13:32:27.320Z,1.45
2022-12-22T13:37:54.920Z,1.55
2022-12-22T13:40:28.302Z,2.22
2022-12-22T13:43:01.568Z,2.35
2022-12-22T13:45:35.344Z,4.30
2022-12-22T13:48:10.501Z,4.90
2022-12-22T13:50:44.199Z,4.38
2022-12-22T13:53:42.076Z,5.13
2022-12-22T13:56:10.178Z,5.18
2022-12-22T13:58:41.252Z,5.20
2022-12-22T14:04:01.696Z,4.15
2022-12-22T14:06:33.872Z,3.78
2022-12-22T14:11:53.053Z,4.00
2022-12-22T14:14:26.835Z,3.75
2022-12-22T14:16:59.569Z,4.25
2022-12-22T14:19:33.297Z,3.78
2022-12-22T14:22:08.415Z,4.47
2022-12-22T14:24:44.402Z,3.85
2022-12-22T14:27:25.364Z,3.22
2022-12-22T14:29:54.034Z,3.35
2022-12-22T14:32:40.629Z,3.45
2022-12-22T14:35:31.291Z,3.15
2022-12-22T14:38:29.569Z,3.10
2022-12-22T14:40:58.174Z,2.80
2022-12-22T14:43:33.299Z,2.40
2022-12-22T14:46:09.182Z,2.63
2022-12-22T14:48:41.445Z,2.60
2022-12-22T14:51:09.950Z,2.90
2022-12-22T14:53:48.083Z,2.78
2022-12-22T14:56:18.558Z,2.70
2022-12-22T14:58:50.021Z,2.15
2022-12-22T15:01:23.462Z,2.78
2022-12-22T15:04:09.616Z,2.88
2022-12-22T15:06:41.351Z,3.22
2022-12-22T15:12:19.457Z,2.95
2022-12-22T15:14:50.102Z,3.08
2022-12-22T15:17:23.887Z,2.85
2022-12-22T15:19:52.950Z,2.88
2022-12-22T15:22:21.406Z,2.85
2022-12-22T15:24:49.718Z,2.72
2022-12-22T15:27:18.010Z,2.95
2022-12-22T15:29:46.325Z,2.47
2022-12-22T15:32:16.398Z,2.85
2022-12-22T15:34:45.327Z,2.58
2022-12-22T15:37:14.272Z,2.75
2022-12-22T15:39:42.554Z,2.80
2022-12-22T15:42:10.875Z,2.78
2022-12-22T15:44:39.531Z,2.90
2022-12-22T15:47:10.996Z,2.80
2022-12-22T15:49:41.178Z,3.15
2022-12-22T15:52:13.291Z,3.30
2022-12-22T15:54:41.661Z,3.28
2022-12-22T15:57:14.629Z,2.92
2022-12-22T15:59:42.937Z,3.42
2022-12-22T16:02:13.644Z,3.38
2022-12-22T16:04:43.658Z,2.88
2022-12-22T16:07:13.532Z,3.28
2022-12-22T16:09:44.450Z,3.03
2022-12-22T16:12:18.046Z,3.00
2022-12-22T16:14:51.115Z,3.42
2022-12-22T16:17:21.767Z,3.30
2022-12-22T16:19:51.544Z,3.15
2022-12-22T16:22:27.847Z,2.92
2022-12-22T16:24:56.266Z,3.10
2022-12-22T16:27:24.696Z,2.70
2022-12-22T16:29:55.031Z,2.75
2022-12-22T16:32:26.752Z,3.08
2022-12-22T16:35:19.829Z,2.38
2022-12-22T16:37:49.975Z,2.53
2022-12-22T16:40:19.936Z,2.40
2022-12-22T16:45:46.679Z,2.38
2022-12-22T16:48:20.887Z,2.30
2022-12-22T16:50:50.742Z,2.28
2022-12-22T16:53:19.214Z,2.97
2022-12-22T16:55:47.519Z,4.35
2022-12-22T16:58:15.789Z,2.63
2022-12-22T17:00:46.417Z,2.50
2022-12-22T17:03:17.517Z,3.35
2022-12-22T17:08:24.528Z,2.67
2022-12-22T17:10:55.170Z,2.88
2022-12-22T17:13:24.132Z,2.63
2022-12-22T17:15:52.838Z,2.53
2022-12-22T17:18:23.725Z,2.50
2022-12-22T17:20:56.490Z,1.60
2022-12-22T17:23:33.776Z,1.95
2022-12-22T17:26:04.918Z,2.00
2022-12-22T17:28:34.659Z,1.60
2022-12-22T17:31:03.348Z,2.05
2022-12-22T17:33:32.403Z,2.65
2022-12-22T17:36:02.398Z,1.70
2022-12-22T17:38:32.143Z,2.10
2022-12-22T17:41:01.685Z,2.15
2022-12-22T17:43:29.952Z,1.60
2022-12-22T17:45:58.233Z,1.95
2022-12-22T17:48:26.515Z,1.65
2022-12-22T17:50:54.838Z,1.52
2022-12-22T17:53:23.802Z,2.30
2022-12-22T17:56:09.739Z,2.40
2022-12-22T17:58:38.188Z,1.92
2022-12-22T18:01:06.753Z,1.80
2022-12-22T18:03:35.127Z,1.55
2022-12-22T18:06:03.659Z,2.00
2022-12-22T18:08:32.066Z,1.50
2022-12-22T18:11:03.419Z,2.33
2022-12-22T18:13:31.794Z,1.40
2022-12-22T18:16:00.266Z,1.85
2022-12-22T18:18:28.897Z,1.85
2022-12-22T18:21:06.995Z,1.70
2022-12-22T18:23:37.971Z,1.58
2022-12-22T18:26:09.769Z,1.60
2022-12-22T18:28:38.128Z,1.70
2022-12-22T18:31:06.907Z,1.67
2022-12-22T18:33:35.255Z,1.70
2022-12-22T18:36:03.947Z,1.63
2022-12-22T18:38:36.096Z,2.22
2022-12-22T18:41:04.561Z,1.38
2022-12-22T18:43:34.324Z,1.60
2022-12-22T18:46:02.651Z,1.65
2022-12-22T18:48:30.911Z,1.73
2022-12-22T18:50:59.269Z,1.88
2022-12-22T18:53:31.552Z,1.40
2022-12-22T18:56:00.833Z,1.63
2022-12-22T18:58:29.219Z,2.38
2022-12-22T19:00:59.198Z,1.98
2022-12-22T19:03:30.206Z,1.58
2022-12-22T19:08:31.420Z,1.50
2022-12-22T19:11:01.882Z,1.95
2022-12-22T19:13:35.429Z,1.77
2022-12-22T19:16:06.727Z,1.98
2022-12-22T19:18:35.090Z,2.10
2022-12-22T19:21:03.350Z,1.80
2022-12-22T19:23:31.682Z,1.67
2022-12-22T19:26:08.429Z,1.75
2022-12-22T19:28:41.326Z,1.92
2022-12-22T19:31:22.117Z,2.17
2022-12-22T19:33:51.381Z,2.75
2022-12-22T19:36:25.442Z,2.15
2022-12-22T19:39:03.496Z,1.80
2022-12-22T19:41:42.079Z,1.77
2022-12-22T19:44:20.668Z,1.50
2022-12-22T19:46:51.169Z,1.35
2022-12-22T19:49:22.485Z,1.55
2022-12-22T19:51:51.372Z,1.33
2022-12-22T19:54:20.585Z,1.90
2022-12-22T19:56:52.801Z,2.50
2022-12-22T19:59:33.963Z,1.30
2022-12-22T20:02:26.639Z,1.40
2022-12-22T20:04:55.889Z,1.60
2022-12-22T20:07:27.785Z,1.55
2022-12-22T20:09:56.277Z,1.50
2022-12-22T20:12:29.733Z,1.50
2022-12-22T20:14:58.491Z,1.63
2022-12-22T20:17:28.251Z,2.33
2022-12-22T20:19:56.626Z,1.90
2022-12-22T20:22:25.308Z,4.55
2022-12-22T20:25:26.024Z,2.40
2022-12-22T20:27:56.262Z,1.90
2022-12-22T20:30:29.166Z,1.70
2022-12-22T20:32:59.011Z,1.60
2022-12-22T20:35:27.410Z,1.85
2022-12-22T20:37:55.746Z,1.75
2022-12-22T20:40:26.586Z,1.60
2022-12-22T20:42:55.395Z,2.08
2022-12-22T20:45:23.947Z,1.50
2022-12-22T20:47:52.929Z,2.80
2022-12-22T20:50:25.816Z,1.85
2022-12-22T20:52:55.444Z,1.60
2022-12-22T20:55:27.125Z,1.85
2022-12-22T20:57:56.278Z,1.55
2022-12-22T21:00:28.416Z,1.95
2022-12-22T21:02:56.862Z,1.85
2022-12-22T21:05:26.652Z,1.75
2022-12-22T21:07:55.145Z,1.73
2022-12-22T21:10:26.550Z,1.65
2022-12-22T21:12:55.078Z,1.40
2022-12-22T21:15:25.670Z,1.60
2022-12-22T21:17:58.236Z,1.30
2022-12-22T21:20:31.504Z,1.40
2022-12-22T21:22:59.847Z,1.42
2022-12-22T21:25:28.484Z,1.60
2022-12-22T21:27:57.736Z,1.58
2022-12-22T21:30:28.914Z,1.38
2022-12-22T21:32:57.916Z,1.83
2022-12-22T21:35:32.641Z,2.10
2022-12-22T21:38:01.163Z,2.78
2022-12-22T21:40:32.490Z,1.70
2022-12-22T21:43:01.066Z,1.88
2022-12-22T21:45:31.961Z,1.52
2022-12-22T21:48:02.146Z,2.25
2022-12-22T21:50:34.517Z,1.40
2022-12-22T21:53:03.400Z,1.70
2022-12-22T21:55:34.467Z,1.70
2022-12-22T22:00:33.203Z,1.50
2022-12-22T22:03:03.594Z,1.40
2022-12-22T22:05:36.293Z,1.90
2022-12-22T22:08:07.755Z,1.50
2022-12-22T22:10:39.816Z,1.33
2022-12-22T22:13:09.262Z,1.80
2022-12-22T22:15:38.179Z,1.30
2022-12-22T22:18:07.729Z,1.65
2022-12-22T22:20:37.707Z,1.65
2022-12-22T22:23:06.021Z,2.08
2022-12-22T22:25:34.303Z,1.90
2022-12-22T22:28:02.598Z,1.50
2022-12-22T22:30:31.065Z,1.65
2022-12-22T22:32:59.485Z,1.80
2022-12-22T22:35:28.813Z,1.50
2022-12-22T22:37:58.473Z,1.50
2022-12-22T22:40:26.793Z,2.00
2022-12-22T22:42:56.852Z,1.50
2022-12-22T22:45:25.169Z,1.25
2022-12-22T22:47:54.227Z,1.70
2022-12-22T22:50:24.280Z,1.50
2022-12-22T22:52:52.641Z,1.50
2022-12-22T22:55:22.354Z,1.63
2022-12-22T22:57:50.871Z,1.63
2022-12-22T23:00:21.951Z,1.45
2022-12-22T23:02:50.397Z,1.40
2022-12-22T23:05:22.857Z,1.40
2022-12-22T23:07:51.673Z,1.40
2022-12-22T23:10:21.394Z,1.98
2022-12-22T23:12:49.844Z,1.90
2022-12-22T23:15:18.351Z,1.40
2022-12-22T23:17:46.736Z,1.65
2022-12-22T23:20:15.217Z,1.60
2022-12-22T23:22:43.560Z,1.80
2022-12-22T23:25:11.849Z,1.45
2022-12-22T23:27:41.561Z,1.40
2022-12-22T23:30:11.652Z,1.73
2022-12-22T23:32:39.952Z,1.80
2022-12-22T23:35:08.857Z,1.73
2022-12-22T23:37:37.211Z,2.17
2022-12-22T23:42:57.398Z,1.42
2022-12-22T23:45:25.825Z,1.45
2022-12-22T23:47:54.099Z,1.58
2022-12-22T23:50:22.898Z,1.42
2022-12-22T23:52:52.748Z,1.80
2022-12-22T23:55:21.907Z,1.52
2022-12-22T23:57:51.704Z,1.95
